Time;durP1;ratioP1;P1;durP2;ratioP2;P2;SDS_P1;SDS_P2;PMS_P1;PMS_P2;Temp;Humidity;BMP_temperature;BMP_pressure;BME280_temperature;BME280_humidity;BME280_pressure;Samples;Min_cycle;Max_cycle;Signal;HPM_P1;HPM_P2
2021/01/24 00:00:11;;;;;;;3.53;3.22;;;3.00;99.90;;;;;;6172972;23;20206;-83
2021/01/24 00:02:37;;;;;;;3.63;3.03;;;3.00;99.90;;;;;;6174057;23;20240;-81
2021/01/24 00:05:08;;;;;;;2.80;2.60;;;3.00;99.90;;;;;;6173770;23;20214;-83
2021/01/24 00:07:34;;;;;;;3.80;3.40;;;3.00;99.90;;;;;;6173735;23;20258;-84
2021/01/24 00:10:03;;;;;;;2.50;2.25;;;3.00;99.90;;;;;;6172985;23;20203;-84
2021/01/24 00:12:29;;;;;;;2.33;1.75;;;3.00;99.90;;;;;;6173783;23;20257;-83
2021/01/24 00:14:56;;;;;;;2.47;2.28;;;2.90;99.90;;;;;;6173467;23;20179;-83
2021/01/24 00:17:22;;;;;;;2.22;1.95;;;2.90;99.90;;;;;;6173427;23;20203;-83
2021/01/24 00:19:49;;;;;;;2.80;2.60;;;2.90;99.90;;;;;;6173856;23;20209;-82
2021/01/24 00:22:18;;;;;;;2.78;2.58;;;2.90;99.90;;;;;;6173548;23;20614;-83
2021/01/24 00:24:44;;;;;;;2.97;2.78;;;2.90;99.90;;;;;;6172562;23;20190;-84
2021/01/24 00:27:11;;;;;;;2.40;2.25;;;2.90;99.90;;;;;;6172674;23;20167;-84
2021/01/24 00:29:38;;;;;;;2.80;2.70;;;2.90;99.90;;;;;;6173338;23;20203;-83
2021/01/24 00:32:05;;;;;;;3.15;2.83;;;2.90;99.90;;;;;;6172879;23;20503;-83
2021/01/24 00:34:31;;;;;;;2.38;2.17;;;2.90;99.90;;;;;;6173266;23;20197;-84
2021/01/24 00:36:57;;;;;;;2.72;2.53;;;2.90;99.90;;;;;;6172406;23;20234;-84
2021/01/24 00:39:23;;;;;;;2.90;2.70;;;2.90;99.90;;;;;;6173391;23;20223;-84
2021/01/24 00:41:49;;;;;;;2.90;2.70;;;2.90;99.90;;;;;;6170869;23;20638;-83
2021/01/24 00:44:16;;;;;;;3.60;3.17;;;2.80;99.90;;;;;;6173646;23;20190;-83
2021/01/24 00:46:42;;;;;;;3.05;2.85;;;2.80;99.90;;;;;;6173307;23;20210;-83
2021/01/24 00:49:09;;;;;;;2.72;2.53;;;2.70;99.90;;;;;;6171370;23;20179;-84
2021/01/24 00:51:35;;;;;;;3.03;2.75;;;2.80;99.90;;;;;;6170580;23;20186;-83
2021/01/24 00:54:01;;;;;;;3.15;2.85;;;2.80;99.90;;;;;;6170361;23;20179;-83
2021/01/24 00:56:27;;;;;;;2.78;2.67;;;2.80;99.90;;;;;;6168604;23;20187;-83
2021/01/24 00:58:54;;;;;;;3.22;3.03;;;2.80;99.90;;;;;;6163900;23;20210;-82
2021/01/24 01:02:01;;;;;;;2.80;2.53;;;2.80;99.90;;;;;;6164387;23;20204;-84
2021/01/24 01:04:28;;;;;;;2.13;1.80;;;2.80;99.90;;;;;;6166879;23;20183;-83
2021/01/24 01:06:54;;;;;;;2.72;2.53;;;2.80;99.90;;;;;;6167965;23;20190;-83
2021/01/24 01:09:20;;;;;;;2.55;2.38;;;2.70;99.90;;;;;;6168106;23;20226;-84
2021/01/24 01:11:47;;;;;;;2.50;2.30;;;2.80;99.90;;;;;;6166652;23;20183;-83
2021/01/24 01:14:14;;;;;;;2.45;2.35;;;2.80;99.90;;;;;;6165035;23;20187;-83
2021/01/24 01:16:40;;;;;;;2.10;2.00;;;2.80;99.90;;;;;;6167105;23;20186;-84
2021/01/24 01:19:07;;;;;;;2.90;2.63;;;2.90;99.90;;;;;;6167692;23;20527;-82
2021/01/24 01:21:34;;;;;;;2.78;2.60;;;2.80;99.90;;;;;;6170024;23;20262;-83
2021/01/24 01:24:00;;;;;;;2.38;2.10;;;2.90;99.90;;;;;;6168872;23;20226;-83
2021/01/24 01:26:26;;;;;;;2.22;2.13;;;2.90;99.90;;;;;;6169194;23;20489;-83
2021/01/24 01:28:53;;;;;;;2.67;2.35;;;2.80;99.90;;;;;;6170184;23;20175;-82
2021/01/24 01:31:19;;;;;;;2.80;2.60;;;2.80;99.90;;;;;;6169909;23;20203;-82
2021/01/24 01:33:45;;;;;;;2.97;2.15;;;2.80;99.90;;;;;;6169420;23;20647;-83
2021/01/24 01:36:11;;;;;;;3.38;2.70;;;2.80;99.90;;;;;;6171732;23;20570;-83
2021/01/24 01:38:38;;;;;;;3.70;3.30;;;2.80;99.90;;;;;;6171227;23;20199;-83
2021/01/24 01:41:05;;;;;;;2.55;2.40;;;2.80;99.90;;;;;;6169564;23;20210;-83
2021/01/24 01:43:31;;;;;;;2.25;1.75;;;2.70;99.90;;;;;;6168955;23;20191;-81
2021/01/24 01:45:57;;;;;;;2.53;2.40;;;2.60;99.90;;;;;;6169980;23;20217;-83
2021/01/24 01:48:24;;;;;;;2.83;2.45;;;2.60;99.90;;;;;;6169995;23;20186;-83
2021/01/24 01:50:50;;;;;;;3.00;2.80;;;2.70;99.90;;;;;;6169120;23;20735;-83
2021/01/24 01:53:16;;;;;;;3.58;2.60;;;2.70;99.90;;;;;;6169585;23;20509;-84
2021/01/24 01:55:43;;;;;;;3.08;2.80;;;2.60;99.90;;;;;;6169465;23;20214;-83
2021/01/24 01:58:10;;;;;;;4.10;2.65;;;2.60;99.90;;;;;;6169255;23;20199;-82
2021/01/24 02:00:37;;;;;;;3.15;2.85;;;2.70;99.90;;;;;;6169757;23;20539;-83
2021/01/24 02:03:19;;;;;;;2.70;2.50;;;2.60;99.90;;;;;;6167991;23;20213;-83
2021/01/24 02:05:54;;;;;;;1.60;1.50;;;2.70;99.90;;;;;;6168180;23;20167;-83
2021/01/24 02:08:28;;;;;;;2.20;2.00;;;2.60;99.90;;;;;;6168052;23;20163;-83
2021/01/24 02:11:09;;;;;;;1.77;1.67;;;2.60;99.90;;;;;;6168369;23;20674;-84
2021/01/24 02:13:46;;;;;;;2.08;1.98;;;2.60;99.90;;;;;;6168866;23;20222;-84
2021/01/24 02:16:15;;;;;;;1.42;1.42;;;2.60;99.90;;;;;;6170522;23;20506;-84
2021/01/24 02:18:45;;;;;;;0.88;0.88;;;2.70;99.90;;;;;;6170363;23;20225;-84
2021/01/24 02:21:15;;;;;;;0.88;0.70;;;2.60;99.90;;;;;;6170218;23;20203;-84
2021/01/24 02:23:42;;;;;;;1.27;1.17;;;2.50;99.90;;;;;;6169662;23;20669;-83
2021/01/24 02:26:13;;;;;;;0.50;0.50;;;2.40;99.90;;;;;;6170128;23;20179;-83
2021/01/24 02:29:03;;;;;;;0.70;0.70;;;2.20;99.90;;;;;;6170035;23;20164;-82
2021/01/24 02:31:32;;;;;;;0.80;0.80;;;2.20;99.90;;;;;;6170101;23;20171;-82
2021/01/24 02:34:00;;;;;;;0.57;0.57;;;2.10;99.90;;;;;;6169242;23;20237;-83
2021/01/24 02:36:28;;;;;;;1.05;0.95;;;2.00;99.90;;;;;;6169998;23;20523;-83
2021/01/24 02:38:56;;;;;;;0.85;0.85;;;2.00;99.90;;;;;;6169410;23;20229;-81
2021/01/24 02:41:24;;;;;;;0.52;0.47;;;2.00;99.90;;;;;;6169235;23;20204;-82
2021/01/24 02:43:51;;;;;;;0.60;0.60;;;1.90;99.90;;;;;;6168225;23;20195;-82
2021/01/24 02:46:18;;;;;;;0.60;0.60;;;1.80;99.90;;;;;;6168331;23;20556;-83
2021/01/24 02:48:46;;;;;;;1.17;0.73;;;1.80;99.90;;;;;;6168174;23;20194;-82
2021/01/24 02:51:13;;;;;;;0.57;0.57;;;1.80;99.90;;;;;;6168583;23;20207;-84
2021/01/24 02:53:42;;;;;;;0.65;0.65;;;1.80;99.90;;;;;;6167829;23;20183;-84
2021/01/24 02:56:08;;;;;;;0.65;0.65;;;1.70;99.90;;;;;;6167637;23;20231;-81
2021/01/24 02:58:35;;;;;;;0.60;0.60;;;1.70;99.90;;;;;;6167632;23;20195;-82
2021/01/24 03:01:01;;;;;;;0.85;0.85;;;1.70;99.90;;;;;;6167141;23;20204;-83
2021/01/24 03:03:28;;;;;;;1.08;0.98;;;1.60;99.90;;;;;;6167599;23;20183;-83
2021/01/24 03:05:55;;;;;;;1.00;1.00;;;1.50;99.90;;;;;;6167655;23;20187;-83
2021/01/24 03:08:22;;;;;;;1.50;1.40;;;1.50;99.90;;;;;;6168283;23;20176;-83
2021/01/24 03:10:49;;;;;;;1.15;1.15;;;1.50;99.90;;;;;;6167962;23;20203;-83
2021/01/24 03:13:22;;;;;;;0.98;0.98;;;1.60;99.90;;;;;;6167621;23;20266;-82
2021/01/24 03:15:49;;;;;;;1.30;1.20;;;1.50;99.90;;;;;;6168231;23;20167;-83
2021/01/24 03:18:18;;;;;;;2.47;1.63;;;1.50;99.90;;;;;;6167972;23;20671;-82
2021/01/24 03:20:46;;;;;;;1.40;1.33;;;1.50;99.90;;;;;;6167649;23;20203;-83
2021/01/24 03:23:14;;;;;;;1.60;1.50;;;1.50;99.90;;;;;;6167619;23;20179;-83
2021/01/24 03:25:42;;;;;;;2.00;1.73;;;1.50;99.90;;;;;;6167753;23;20250;-83
2021/01/24 03:28:09;;;;;;;2.63;2.42;;;1.50;99.90;;;;;;6168805;23;20349;-83
2021/01/24 03:30:36;;;;;;;1.95;1.85;;;1.60;99.90;;;;;;6169378;23;20204;-83
2021/01/24 03:33:03;;;;;;;1.85;1.75;;;1.50;99.90;;;;;;6169533;23;20190;-83
2021/01/24 03:35:29;;;;;;;1.17;0.95;;;1.60;99.90;;;;;;6170211;23;20183;-82
2021/01/24 03:37:55;;;;;;;1.40;1.20;;;1.50;99.90;;;;;;6169900;23;20195;-83
2021/01/24 03:40:23;;;;;;;1.48;1.38;;;1.40;99.90;;;;;;6168118;23;20203;-82
2021/01/24 03:42:49;;;;;;;2.85;2.65;;;1.40;99.90;;;;;;6167729;23;20214;-82
2021/01/24 03:45:15;;;;;;;2.10;1.90;;;1.30;99.90;;;;;;6169612;23;20266;-82
2021/01/24 03:47:42;;;;;;;3.38;2.55;;;1.30;99.90;;;;;;6169879;23;20186;-83
2021/01/24 03:50:09;;;;;;;2.22;2.03;;;1.40;99.90;;;;;;6168328;23;20206;-83
2021/01/24 03:52:35;;;;;;;3.97;2.45;;;1.40;99.90;;;;;;6168543;23;20537;-82
2021/01/24 03:55:02;;;;;;;3.42;3.10;;;1.40;99.90;;;;;;6169489;23;20180;-83
2021/01/24 03:57:29;;;;;;;2.40;2.20;;;1.40;99.90;;;;;;6168980;23;20532;-83
2021/01/24 03:59:56;;;;;;;3.88;3.58;;;1.40;99.90;;;;;;6168747;23;20210;-83
2021/01/24 04:02:22;;;;;;;2.47;2.28;;;1.30;99.90;;;;;;6168405;23;20183;-83
2021/01/24 04:04:49;;;;;;;3.42;3.03;;;1.20;99.90;;;;;;6168283;23;20184;-83
2021/01/24 04:07:16;;;;;;;2.40;2.20;;;1.30;99.90;;;;;;6168603;23;20187;-83
2021/01/24 04:09:43;;;;;;;3.72;3.35;;;1.30;99.90;;;;;;6167979;23;20210;-82
2021/01/24 04:12:10;;;;;;;3.63;3.28;;;1.40;99.90;;;;;;6168340;23;20210;-84
2021/01/24 04:14:37;;;;;;;2.92;2.72;;;1.50;99.90;;;;;;6168591;23;20654;-82
2021/01/24 04:17:04;;;;;;;2.45;2.20;;;1.50;99.90;;;;;;6168899;23;20187;-83
2021/01/24 04:19:30;;;;;;;2.47;2.30;;;1.40;99.90;;;;;;6167654;23;20207;-83
2021/01/24 04:21:57;;;;;;;3.42;3.13;;;1.50;99.90;;;;;;6166834;23;20211;-83
2021/01/24 04:24:23;;;;;;;7.30;3.08;;;1.40;99.90;;;;;;6167052;23;20234;-83
2021/01/24 04:26:50;;;;;;;3.38;2.70;;;1.30;99.90;;;;;;6167538;23;20184;-83
2021/01/24 04:29:16;;;;;;;2.65;2.45;;;1.30;99.90;;;;;;6167084;23;20186;-83
2021/01/24 04:31:44;;;;;;;2.65;2.20;;;1.30;99.90;;;;;;6166284;23;20567;-82
2021/01/24 04:34:11;;;;;;;2.00;1.90;;;1.30;99.90;;;;;;6167096;23;20182;-82
2021/01/24 04:36:37;;;;;;;2.90;2.50;;;1.20;99.90;;;;;;6166773;23;20210;-83
2021/01/24 04:39:04;;;;;;;3.15;2.85;;;1.20;99.90;;;;;;6167768;23;20533;-83
2021/01/24 04:41:35;;;;;;;2.10;1.88;;;1.00;99.90;;;;;;6167199;23;20183;-83
2021/01/24 04:44:02;;;;;;;2.72;2.53;;;0.90;99.90;;;;;;6167616;23;20217;-83
2021/01/24 04:46:28;;;;;;;3.95;2.10;;;0.70;99.90;;;;;;6166387;23;20180;-83
2021/01/24 04:48:55;;;;;;;5.85;2.30;;;0.50;99.90;;;;;;6167192;23;20186;-82
2021/01/24 04:51:23;;;;;;;2.50;2.20;;;0.60;99.90;;;;;;6165053;23;20211;-83
2021/01/24 04:53:49;;;;;;;1.83;1.60;;;0.60;99.90;;;;;;6166876;23;20206;-83
2021/01/24 04:56:16;;;;;;;1.58;1.48;;;0.60;99.90;;;;;;6166559;23;20211;-83
2021/01/24 04:58:43;;;;;;;4.63;2.75;;;0.50;99.90;;;;;;6166289;23;20195;-83
2021/01/24 05:01:11;;;;;;;2.25;2.05;;;0.60;99.90;;;;;;6165905;23;20206;-83
2021/01/24 05:03:37;;;;;;;1.98;1.85;;;0.60;99.90;;;;;;6165988;23;20209;-83
2021/01/24 05:06:05;;;;;;;2.13;1.88;;;0.70;99.90;;;;;;6165018;23;20187;-83
2021/01/24 05:08:33;;;;;;;2.28;2.17;;;0.70;99.90;;;;;;6165576;23;20227;-82
2021/01/24 05:11:05;;;;;;;2.33;2.13;;;0.60;99.90;;;;;;6164928;23;20202;-81
2021/01/24 05:13:31;;;;;;;2.17;2.00;;;0.50;99.90;;;;;;6165193;23;20503;-82
2021/01/24 05:15:58;;;;;;;2.45;2.08;;;0.50;99.90;;;;;;6166541;23;20190;-82
2021/01/24 05:18:24;;;;;;;2.60;2.30;;;0.70;99.90;;;;;;6165972;23;20225;-82
2021/01/24 05:20:52;;;;;;;2.92;2.72;;;0.80;99.90;;;;;;6165991;23;20207;-82
2021/01/24 05:23:21;;;;;;;2.50;2.30;;;0.90;99.90;;;;;;6166638;23;20190;-82
2021/01/24 05:25:48;;;;;;;2.20;2.10;;;0.90;99.90;;;;;;6167637;23;20179;-83
2021/01/24 05:28:21;;;;;;;2.80;2.60;;;0.80;99.90;;;;;;6166742;23;20179;-82
2021/01/24 05:30:48;;;;;;;4.65;2.20;;;0.90;99.90;;;;;;6166741;23;20203;-82
2021/01/24 05:33:17;;;;;;;2.08;1.92;;;0.80;99.90;;;;;;6166258;23;20183;-83
2021/01/24 05:35:48;;;;;;;4.82;3.45;;;0.80;99.90;;;;;;6214487;23;20208;-82
2021/01/24 05:38:29;;;;;;;3.05;2.85;;;0.80;99.90;;;;;;6227785;23;20201;-84
2021/01/24 05:40:59;;;;;;;2.45;2.22;;;0.70;99.90;;;;;;6229710;23;20166;-84
2021/01/24 05:43:26;;;;;;;3.30;3.03;;;0.50;99.90;;;;;;6229122;23;20188;-84
2021/01/24 05:45:53;;;;;;;3.63;3.33;;;0.30;99.90;;;;;;6229581;23;20209;-83
2021/01/24 05:48:19;;;;;;;3.00;2.80;;;0.20;99.90;;;;;;6229869;23;20178;-84
2021/01/24 05:50:46;;;;;;;2.78;2.00;;;0.20;99.90;;;;;;6228791;23;20235;-85
2021/01/24 05:53:13;;;;;;;1.98;1.70;;;0.20;99.90;;;;;;6229101;23;20185;-84
2021/01/24 05:55:43;;;;;;;2.78;2.60;;;0.20;99.90;;;;;;6231216;23;20205;-84
2021/01/24 05:58:17;;;;;;;2.75;2.55;;;0.30;99.90;;;;;;6231765;23;20205;-85
2021/01/24 06:00:44;;;;;;;3.58;2.55;;;0.30;99.90;;;;;;6231381;23;20177;-84
2021/01/24 06:03:12;;;;;;;4.65;2.70;;;0.20;99.90;;;;;;6231256;23;20182;-84
2021/01/24 06:05:38;;;;;;;3.13;2.90;;;0.20;99.90;;;;;;6231655;23;20206;-85
2021/01/24 06:08:06;;;;;;;3.47;3.17;;;0.40;99.90;;;;;;6237932;23;20204;-85
2021/01/24 06:10:32;;;;;;;4.95;3.80;;;0.40;99.90;;;;;;6239621;23;20233;-84
2021/01/24 06:13:00;;;;;;;3.33;3.03;;;0.40;99.90;;;;;;6238306;23;20184;-83
2021/01/24 06:15:29;;;;;;;3.88;3.25;;;0.40;99.90;;;;;;6231513;23;20198;-84
2021/01/24 06:17:57;;;;;;;4.20;3.15;;;0.40;99.90;;;;;;6231035;23;20225;-84
2021/01/24 06:20:31;;;;;;;3.88;3.42;;;0.40;99.90;;;;;;6229251;23;20182;-85
2021/01/24 06:23:07;;;;;;;4.88;3.55;;;0.50;99.90;;;;;;6230253;23;20166;-85
2021/01/24 06:25:37;;;;;;;3.22;2.97;;;0.50;99.90;;;;;;6229828;23;20212;-85
2021/01/24 06:28:10;;;;;;;3.38;3.08;;;0.50;99.90;;;;;;6230092;23;20185;-85
2021/01/24 06:30:36;;;;;;;6.03;2.78;;;0.60;99.90;;;;;;6229117;23;20166;-85
2021/01/24 06:33:13;;;;;;;4.63;3.35;;;0.40;99.90;;;;;;6227757;23;20174;-85
2021/01/24 06:35:44;;;;;;;3.90;2.47;;;0.50;99.90;;;;;;6227350;23;20213;-85
2021/01/24 06:38:11;;;;;;;2.63;2.30;;;0.40;99.90;;;;;;6226108;23;20186;-85
2021/01/24 06:40:42;;;;;;;4.20;3.72;;;0.50;99.90;;;;;;6227173;23;20178;-85
2021/01/24 06:43:10;;;;;;;4.15;3.75;;;0.40;99.90;;;;;;6227350;23;20172;-85
2021/01/24 06:45:41;;;;;;;5.95;4.13;;;0.30;99.90;;;;;;6227235;23;20205;-85
2021/01/24 06:48:09;;;;;;;3.80;3.22;;;0.40;99.90;;;;;;6228516;23;20162;-85
2021/01/24 06:50:46;;;;;;;3.85;3.55;;;0.40;99.90;;;;;;6227771;23;20495;-86
2021/01/24 06:53:14;;;;;;;2.50;2.30;;;0.50;99.90;;;;;;6226304;23;20503;-84
2021/01/24 06:55:53;;;;;;;3.30;2.70;;;0.50;99.90;;;;;;6227567;23;20256;-85
2021/01/24 06:58:24;;;;;;;2.95;2.75;;;0.40;99.90;;;;;;6227529;23;20189;-84
2021/01/24 07:00:51;;;;;;;2.70;2.50;;;0.30;99.90;;;;;;6232914;23;20182;-85
2021/01/24 07:03:19;;;;;;;2.63;2.50;;;0.40;99.90;;;;;;6228005;23;20232;-86
2021/01/24 07:05:45;;;;;;;3.42;3.13;;;0.60;99.90;;;;;;6227458;23;20205;-85
2021/01/24 07:08:30;;;;;;;5.13;2.90;;;0.60;99.90;;;;;;6229227;23;20186;-86
2021/01/24 07:10:56;;;;;;;4.07;3.20;;;0.50;99.90;;;;;;6228558;23;20169;-85
2021/01/24 07:13:35;;;;;;;4.85;3.20;;;0.40;99.90;;;;;;6229017;23;20204;-85
2021/01/24 07:16:04;;;;;;;6.90;3.05;;;0.50;99.90;;;;;;6229834;23;20208;-85
2021/01/24 07:18:38;;;;;;;2.22;1.88;;;0.40;99.90;;;;;;6228630;23;20212;-85
2021/01/24 07:21:05;;;;;;;2.97;2.67;;;0.30;99.90;;;;;;6229445;23;20182;-86
2021/01/24 07:23:32;;;;;;;3.05;2.85;;;0.40;99.90;;;;;;6229535;23;20189;-86
2021/01/24 07:26:00;;;;;;;4.82;3.15;;;0.50;99.90;;;;;;6231175;23;20523;-85
2021/01/24 07:28:28;;;;;;;2.58;2.38;;;0.60;99.90;;;;;;6230251;23;20221;-85
2021/01/24 07:31:02;;;;;;;5.28;2.90;;;0.70;99.90;;;;;;6229045;23;20188;-85
2021/01/24 07:33:30;;;;;;;5.00;4.63;;;0.70;99.90;;;;;;6229531;23;20167;-85
2021/01/24 07:36:01;;;;;;;4.45;3.45;;;0.70;99.90;;;;;;6230219;23;20210;-86
2021/01/24 07:38:28;;;;;;;4.25;3.50;;;0.70;99.90;;;;;;6230973;23;20192;-86
2021/01/24 07:40:55;;;;;;;3.38;3.10;;;0.70;99.90;;;;;;6230121;23;20208;-85
2021/01/24 07:43:22;;;;;;;3.05;2.67;;;0.80;99.90;;;;;;6230735;23;20532;-87
2021/01/24 07:45:49;;;;;;;2.10;1.90;;;0.70;99.90;;;;;;6232837;23;20208;-85
2021/01/24 07:48:16;;;;;;;2.35;2.20;;;0.70;99.90;;;;;;6232395;23;20174;-87
2021/01/24 07:50:42;;;;;;;3.40;2.40;;;0.60;99.90;;;;;;6228319;23;20185;-86
2021/01/24 07:53:09;;;;;;;3.65;3.35;;;0.60;99.90;;;;;;6227803;23;20550;-84
2021/01/24 07:55:38;;;;;;;5.30;2.25;;;0.50;99.90;;;;;;6226308;23;20197;-85
2021/01/24 07:58:04;;;;;;;3.30;2.75;;;0.50;99.90;;;;;;6227727;23;20198;-86
2021/01/24 08:00:33;;;;;;;1.60;1.50;;;0.70;99.90;;;;;;6226368;23;20188;-85
2021/01/24 08:03:00;;;;;;;2.20;2.08;;;0.60;99.90;;;;;;6225843;23;20182;-85
2021/01/24 08:05:30;;;;;;;2.60;2.38;;;0.60;99.90;;;;;;6225439;23;20205;-86
2021/01/24 08:07:57;;;;;;;2.63;1.92;;;0.60;99.90;;;;;;6225505;23;20168;-87
2021/01/24 08:10:27;;;;;;;2.53;2.33;;;0.60;99.90;;;;;;6225647;23;20192;-87
2021/01/24 08:12:54;;;;;;;3.17;2.45;;;0.60;99.90;;;;;;6228939;23;20162;-86
2021/01/24 08:15:20;;;;;;;2.15;1.92;;;0.70;99.90;;;;;;6227943;23;20405;-87
2021/01/24 08:17:47;;;;;;;3.40;2.75;;;0.70;99.90;;;;;;6228751;23;20178;-87
2021/01/24 08:20:14;;;;;;;2.35;2.15;;;0.70;99.90;;;;;;6227323;23;20571;-86
2021/01/24 08:22:41;;;;;;;2.35;2.15;;;0.80;99.90;;;;;;6229025;23;20182;-87
2021/01/24 08:25:09;;;;;;;3.28;3.08;;;0.80;99.90;;;;;;6227867;23;20202;-87
2021/01/24 08:27:36;;;;;;;2.67;1.85;;;0.90;99.90;;;;;;6230449;23;20174;-87
2021/01/24 08:30:04;;;;;;;1.60;1.50;;;0.70;99.90;;;;;;6227886;23;20181;-87
2021/01/24 08:32:31;;;;;;;2.85;2.65;;;0.70;99.90;;;;;;6228200;23;20177;-87
2021/01/24 08:34:58;;;;;;;2.70;2.40;;;0.80;99.90;;;;;;6230072;23;20210;-86
2021/01/24 08:37:25;;;;;;;2.78;2.58;;;0.80;99.90;;;;;;6223589;23;20178;-86
2021/01/24 08:39:53;;;;;;;4.82;3.28;;;0.80;99.90;;;;;;6223393;23;20560;-86
2021/01/24 08:42:19;;;;;;;1.55;1.50;;;0.90;99.90;;;;;;6223903;23;20235;-86
2021/01/24 08:44:58;;;;;;;2.60;2.40;;;0.90;99.90;;;;;;6221749;23;20216;-87
2021/01/24 08:47:24;;;;;;;2.20;2.10;;;1.10;99.90;;;;;;6221961;23;20200;-85
2021/01/24 08:50:06;;;;;;;3.17;2.97;;;1.00;99.90;;;;;;6221388;23;20162;-86
2021/01/24 08:52:32;;;;;;;2.00;1.80;;;1.10;99.90;;;;;;6222194;23;20162;-86
2021/01/24 08:55:04;;;;;;;2.97;2.00;;;1.20;99.90;;;;;;6222007;23;20503;-86
2021/01/24 08:57:35;;;;;;;2.80;2.65;;;1.30;99.90;;;;;;6222274;23;20176;-85
2021/01/24 09:00:04;;;;;;;3.33;2.60;;;1.40;99.90;;;;;;6220914;23;20733;-85
2021/01/24 09:02:32;;;;;;;2.45;2.25;;;1.40;99.90;;;;;;6222015;23;20178;-86
2021/01/24 09:04:59;;;;;;;2.10;1.90;;;1.40;99.90;;;;;;6224274;23;20194;-86
2021/01/24 09:07:36;;;;;;;3.63;2.15;;;1.40;99.90;;;;;;6226404;23;20244;-86
2021/01/24 09:10:16;;;;;;;3.33;2.00;;;1.40;99.90;;;;;;6226477;23;20162;-86
2021/01/24 09:12:44;;;;;;;2.70;2.35;;;1.40;99.90;;;;;;6225507;23;20166;-86
2021/01/24 09:15:11;;;;;;;3.70;3.35;;;1.40;99.90;;;;;;6223745;23;20198;-86
2021/01/24 09:17:37;;;;;;;2.25;2.15;;;1.40;99.90;;;;;;6224758;23;20188;-86
2021/01/24 09:20:04;;;;;;;1.80;1.70;;;1.60;99.90;;;;;;6226850;23;20209;-86
2021/01/24 09:22:31;;;;;;;2.50;2.30;;;1.60;99.90;;;;;;6221103;23;20177;-86
2021/01/24 09:24:57;;;;;;;2.38;1.92;;;1.70;99.90;;;;;;6217102;23;20500;-86
2021/01/24 09:27:24;;;;;;;2.03;1.92;;;1.70;99.90;;;;;;6219186;23;20182;-86
2021/01/24 09:29:50;;;;;;;3.40;3.20;;;1.80;99.90;;;;;;6219765;23;20181;-87
2021/01/24 09:32:16;;;;;;;2.10;1.90;;;1.90;99.90;;;;;;6222356;23;20177;-86
2021/01/24 09:34:43;;;;;;;4.00;3.22;;;2.00;99.90;;;;;;6220882;23;20684;-86
2021/01/24 09:37:09;;;;;;;3.83;3.53;;;2.00;99.90;;;;;;6223251;23;20186;-85
2021/01/24 09:39:36;;;;;;;3.88;3.63;;;1.90;99.90;;;;;;6223119;23;20198;-84
2021/01/24 09:42:02;;;;;;;3.38;3.08;;;1.80;99.90;;;;;;6222048;23;20186;-83
2021/01/24 09:44:29;;;;;;;3.58;3.28;;;1.80;99.90;;;;;;6225256;23;20198;-84
2021/01/24 09:46:55;;;;;;;5.20;2.28;;;1.80;99.90;;;;;;6225145;23;20188;-84
2021/01/24 09:49:21;;;;;;;1.95;1.85;;;1.80;99.90;;;;;;6225400;23;20578;-84
2021/01/24 09:51:48;;;;;;;4.57;3.47;;;1.70;99.90;;;;;;6225106;23;20645;-84
2021/01/24 09:54:15;;;;;;;2.88;2.50;;;1.80;99.90;;;;;;6226433;23;20208;-84
2021/01/24 09:56:41;;;;;;;2.58;2.38;;;1.70;99.90;;;;;;6226554;23;20193;-84
2021/01/24 09:59:07;;;;;;;2.08;1.98;;;1.60;99.90;;;;;;6225813;23;20194;-84
2021/01/24 10:01:34;;;;;;;3.10;2.50;;;1.80;99.90;;;;;;6226232;23;20204;-84
2021/01/24 10:04:01;;;;;;;3.30;3.00;;;1.80;99.90;;;;;;6228555;23;20182;-83
2021/01/24 10:06:27;;;;;;;3.30;3.10;;;1.90;99.90;;;;;;6238837;23;20178;-82
2021/01/24 10:08:53;;;;;;;3.28;2.95;;;1.80;99.90;;;;;;6239884;23;20200;-83
2021/01/24 10:11:21;;;;;;;3.22;2.75;;;1.80;99.90;;;;;;6230715;23;20205;-84
2021/01/24 10:13:48;;;;;;;3.58;2.70;;;1.90;99.90;;;;;;6226036;23;20182;-84
2021/01/24 10:16:14;;;;;;;3.30;3.13;;;1.90;99.90;;;;;;6225494;23;20201;-83
2021/01/24 10:18:41;;;;;;;1.58;1.48;;;2.00;99.90;;;;;;6226335;23;20206;-85
2021/01/24 10:21:08;;;;;;;2.20;2.00;;;1.90;99.90;;;;;;6228240;23;20234;-85
2021/01/24 10:23:34;;;;;;;3.15;2.95;;;2.00;99.90;;;;;;6229598;23;20209;-85
2021/01/24 10:26:01;;;;;;;2.90;2.60;;;2.20;99.90;;;;;;6229315;23;20208;-85
2021/01/24 10:28:28;;;;;;;3.67;3.47;;;2.00;99.90;;;;;;6229900;23;20174;-85
2021/01/24 10:30:55;;;;;;;2.78;2.13;;;2.20;99.90;;;;;;6229801;23;20181;-85
2021/01/24 10:33:22;;;;;;;3.90;2.28;;;2.20;99.90;;;;;;6229462;23;20210;-85
2021/01/24 10:35:50;;;;;;;2.67;2.20;;;2.20;99.90;;;;;;6232120;23;20209;-85
2021/01/24 10:38:17;;;;;;;1.60;1.45;;;2.20;99.90;;;;;;6233664;23;20194;-86
2021/01/24 10:40:44;;;;;;;2.35;2.03;;;2.40;99.90;;;;;;6234423;23;20174;-85
2021/01/24 10:43:11;;;;;;;1.80;1.70;;;2.20;99.90;;;;;;6233931;23;20178;-84
2021/01/24 10:45:38;;;;;;;2.65;2.45;;;2.20;99.90;;;;;;6235403;23;20206;-85
2021/01/24 10:48:06;;;;;;;2.25;2.13;;;2.20;99.90;;;;;;6235499;23;20182;-85
2021/01/24 10:50:33;;;;;;;2.47;2.30;;;2.00;99.90;;;;;;6235631;23;20182;-85
2021/01/24 10:53:00;;;;;;;2.28;1.63;;;2.00;99.90;;;;;;6237272;23;20182;-85
2021/01/24 10:55:27;;;;;;;1.23;1.00;;;2.00;99.90;;;;;;6241358;23;20262;-85
2021/01/24 10:57:53;;;;;;;2.65;2.45;;;1.90;99.90;;;;;;6231394;23;20178;-85
2021/01/24 11:00:20;;;;;;;2.50;2.22;;;2.00;99.90;;;;;;6232328;23;20178;-84
2021/01/24 11:02:47;;;;;;;3.80;2.90;;;2.10;99.90;;;;;;6232575;23;20182;-85
2021/01/24 11:05:13;;;;;;;8.18;5.20;;;2.20;99.90;;;;;;6231978;23;20202;-85
2021/01/24 11:07:39;;;;;;;1.52;1.40;;;2.40;99.90;;;;;;6234618;23;20182;-86
2021/01/24 11:10:08;;;;;;;2.25;1.98;;;2.60;99.90;;;;;;6237409;23;20178;-86
2021/01/24 11:12:34;;;;;;;1.52;1.42;;;2.60;99.90;;;;;;6237568;23;20178;-87
2021/01/24 11:15:01;;;;;;;2.80;1.85;;;2.80;99.90;;;;;;6237235;23;20191;-87
2021/01/24 11:17:27;;;;;;;1.58;1.48;;;2.80;99.90;;;;;;6237851;23;20516;-86
2021/01/24 11:19:53;;;;;;;1.23;1.02;;;2.70;99.90;;;;;;6237258;23;20205;-86
2021/01/24 11:22:20;;;;;;;3.65;3.28;;;2.60;99.90;;;;;;6236896;23;20182;-86
2021/01/24 11:24:47;;;;;;;0.80;0.80;;;2.90;99.90;;;;;;6238208;23;20212;-87
2021/01/24 11:27:15;;;;;;;2.42;2.13;;;3.20;99.90;;;;;;6237342;23;20182;-86
2021/01/24 11:29:41;;;;;;;1.70;1.60;;;3.50;99.90;;;;;;6237764;23;20182;-86
2021/01/24 11:32:08;;;;;;;3.55;2.67;;;3.50;99.90;;;;;;6237614;23;20182;-86
2021/01/24 11:34:35;;;;;;;1.10;1.10;;;3.40;99.90;;;;;;6234662;23;20198;-82
2021/01/24 11:37:02;;;;;;;1.70;1.40;;;3.20;99.90;;;;;;6225520;23;20178;-82
2021/01/24 11:39:28;;;;;;;1.38;1.27;;;2.70;99.90;;;;;;6225352;23;20217;-82
2021/01/24 11:41:54;;;;;;;1.95;1.85;;;2.50;99.90;;;;;;6224222;23;20178;-83
2021/01/24 11:44:23;;;;;;;3.08;1.90;;;2.60;99.90;;;;;;6223691;23;20182;-82
2021/01/24 11:46:50;;;;;;;4.32;1.80;;;2.40;99.90;;;;;;6225195;23;20182;-83
2021/01/24 11:49:16;;;;;;;1.48;1.38;;;2.50;99.90;;;;;;6225638;23;20178;-83
2021/01/24 11:51:42;;;;;;;1.20;1.20;;;2.60;99.90;;;;;;6223512;23;20186;-83
2021/01/24 11:54:08;;;;;;;1.60;1.50;;;2.50;99.90;;;;;;6223910;23;20178;-82
2021/01/24 11:56:34;;;;;;;1.50;1.40;;;2.50;99.90;;;;;;6224447;23;20202;-82
2021/01/24 11:59:01;;;;;;;1.77;1.40;;;2.60;99.90;;;;;;6223004;23;20221;-82
2021/01/24 12:01:28;;;;;;;1.70;1.42;;;2.70;99.90;;;;;;6221926;23;20186;-82
2021/01/24 12:03:54;;;;;;;0.98;0.98;;;2.60;99.90;;;;;;6223109;23;20185;-82
2021/01/24 12:06:20;;;;;;;2.60;1.75;;;2.60;99.90;;;;;;6222536;23;20197;-82
2021/01/24 12:08:46;;;;;;;1.75;1.52;;;2.70;99.90;;;;;;6223447;23;20182;-82
2021/01/24 12:11:13;;;;;;;1.65;1.42;;;2.80;99.90;;;;;;6223944;23;20193;-82
2021/01/24 12:13:39;;;;;;;1.15;1.08;;;2.90;99.90;;;;;;6233273;23;20189;-80
2021/01/24 12:16:06;;;;;;;1.00;1.00;;;2.80;99.90;;;;;;6233666;23;20198;-80
2021/01/24 12:18:33;;;;;;;2.63;1.83;;;3.00;99.90;;;;;;6233687;23;20214;-81
2021/01/24 12:20:59;;;;;;;1.52;1.42;;;3.00;99.90;;;;;;6235423;23;20182;-82
2021/01/24 12:23:25;;;;;;;1.75;1.65;;;3.10;99.90;;;;;;6236080;23;20182;-82
2021/01/24 12:25:51;;;;;;;2.00;1.77;;;3.10;99.50;;;;;;6236237;23;20202;-81
2021/01/24 12:28:18;;;;;;;1.60;1.50;;;2.80;99.60;;;;;;6237046;23;20234;-81
2021/01/24 12:30:44;;;;;;;1.27;1.17;;;2.60;99.20;;;;;;6235405;23;20182;-82
2021/01/24 12:33:12;;;;;;;1.77;1.50;;;2.30;99.70;;;;;;6234712;23;20189;-80
2021/01/24 12:35:40;;;;;;;2.20;2.10;;;2.40;99.70;;;;;;6232887;23;20202;-81
2021/01/24 12:38:07;;;;;;;1.23;1.15;;;2.60;99.90;;;;;;6234964;23;20182;-81
2021/01/24 12:40:33;;;;;;;1.30;1.30;;;2.60;99.80;;;;;;6233816;23;20641;-82
2021/01/24 12:42:59;;;;;;;2.40;1.65;;;2.50;99.70;;;;;;6225115;23;20182;-82
2021/01/24 12:45:26;;;;;;;1.40;1.30;;;2.50;99.60;;;;;;6222828;23;20202;-82
2021/01/24 12:47:52;;;;;;;2.17;1.80;;;2.40;99.50;;;;;;6222571;23;20182;-83
2021/01/24 12:50:19;;;;;;;1.23;1.15;;;2.30;99.70;;;;;;6222235;23;20178;-82
2021/01/24 12:52:46;;;;;;;1.55;1.45;;;2.50;99.90;;;;;;6221675;23;20181;-83
2021/01/24 12:55:13;;;;;;;5.82;2.08;;;3.10;99.90;;;;;;6223408;23;20202;-82
2021/01/24 12:57:39;;;;;;;1.25;1.15;;;3.30;99.30;;;;;;6222724;23;20185;-82
2021/01/24 13:00:08;;;;;;;3.55;2.33;;;3.40;98.50;;;;;;6222340;23;20264;-82